sensor_id;sensor_type;location;lat;lon;timestamp;temperature;humidity
19493;DHT22;9887;54.366;10.958;2022-07-05T00:01:36;14.10;99.90
19493;DHT22;9887;54.366;10.958;2022-07-05T00:04:04;14.10;99.90
19493;DHT22;9887;54.366;10.958;2022-07-05T00:06:32;14.20;99.90
19493;DHT22;9887;54.366;10.958;2022-07-05T00:09:00;14.20;99.90
19493;DHT22;9887;54.366;10.958;2022-07-05T00:11:29;14.40;99.90
19493;DHT22;9887;54.366;10.958;2022-07-05T00:13:57;14.10;99.90
19493;DHT22;9887;54.366;10.958;2022-07-05T00:16:24;14.30;99.90
19493;DHT22;9887;54.366;10.958;2022-07-05T00:18:52;14.20;99.90
19493;DHT22;9887;54.366;10.958;2022-07-05T00:21:20;14.30;99.90
19493;DHT22;9887;54.366;10.958;2022-07-05T00:23:48;14.30;99.90
19493;DHT22;9887;54.366;10.958;2022-07-05T00:26:16;14.50;99.90
19493;DHT22;9887;54.366;10.958;2022-07-05T00:28:45;14.60;99.90
19493;DHT22;9887;54.366;10.958;2022-07-05T00:31:13;14.60;99.90
19493;DHT22;9887;54.366;10.958;2022-07-05T00:33:41;14.50;99.90
19493;DHT22;9887;54.366;10.958;2022-07-05T00:36:09;14.60;99.90
19493;DHT22;9887;54.366;10.958;2022-07-05T00:38:37;14.40;99.90
19493;DHT22;9887;54.366;10.958;2022-07-05T00:41:05;14.50;99.90
19493;DHT22;9887;54.366;10.958;2022-07-05T00:43:33;14.70;99.90
19493;DHT22;9887;54.366;10.958;2022-07-05T00:46:02;14.70;99.90
19493;DHT22;9887;54.366;10.958;2022-07-05T00:48:30;14.70;99.90
19493;DHT22;9887;54.366;10.958;2022-07-05T00:50:58;14.60;99.90
19493;DHT22;9887;54.366;10.958;2022-07-05T00:53:27;14.70;99.90
19493;DHT22;9887;54.366;10.958;2022-07-05T00:55:56;14.50;99.90
19493;DHT22;9887;54.366;10.958;2022-07-05T00:58:24;14.40;99.90
19493;DHT22;9887;54.366;10.958;2022-07-05T01:00:52;14.40;99.90
19493;DHT22;9887;54.366;10.958;2022-07-05T01:03:21;14.40;99.90
19493;DHT22;9887;54.366;10.958;2022-07-05T01:05:49;14.50;99.90
19493;DHT22;9887;54.366;10.958;2022-07-05T01:08:18;14.40;99.90
19493;DHT22;9887;54.366;10.958;2022-07-05T01:10:46;14.50;99.90
19493;DHT22;9887;54.366;10.958;2022-07-05T01:13:14;14.40;99.90
19493;DHT22;9887;54.366;10.958;2022-07-05T01:15:42;14.60;99.90
19493;DHT22;9887;54.366;10.958;2022-07-05T01:18:10;14.20;99.90
19493;DHT22;9887;54.366;10.958;2022-07-05T01:20:41;14.40;99.90
19493;DHT22;9887;54.366;10.958;2022-07-05T01:23:10;14.40;99.90
19493;DHT22;9887;54.366;10.958;2022-07-05T01:25:38;14.30;99.90
19493;DHT22;9887;54.366;10.958;2022-07-05T01:28:06;14.30;99.90
19493;DHT22;9887;54.366;10.958;2022-07-05T01:30:35;14.30;99.90
19493;DHT22;9887;54.366;10.958;2022-07-05T01:33:05;14.30;99.90
19493;DHT22;9887;54.366;10.958;2022-07-05T01:35:33;14.30;99.90
19493;DHT22;9887;54.366;10.958;2022-07-05T01:38:02;14.40;99.90
19493;DHT22;9887;54.366;10.958;2022-07-05T01:40:31;14.40;99.90
19493;DHT22;9887;54.366;10.958;2022-07-05T01:42:59;14.40;99.90
19493;DHT22;9887;54.366;10.958;2022-07-05T01:45:27;14.40;99.90
19493;DHT22;9887;54.366;10.958;2022-07-05T01:48:10;14.40;99.90
19493;DHT22;9887;54.366;10.958;2022-07-05T01:50:41;14.40;99.90
19493;DHT22;9887;54.366;10.958;2022-07-05T01:53:14;14.40;99.90
19493;DHT22;9887;54.366;10.958;2022-07-05T01:55:43;14.50;99.90
19493;DHT22;9887;54.366;10.958;2022-07-05T01:58:12;14.60;99.90
19493;DHT22;9887;54.366;10.958;2022-07-05T02:00:44;14.70;99.90
19493;DHT22;9887;54.366;10.958;2022-07-05T02:03:14;14.70;99.90
19493;DHT22;9887;54.366;10.958;2022-07-05T02:05:54;14.80;99.90
19493;DHT22;9887;54.366;10.958;2022-07-05T02:08:28;14.80;99.90
19493;DHT22;9887;54.366;10.958;2022-07-05T02:10:58;14.80;99.90
19493;DHT22;9887;54.366;10.958;2022-07-05T02:13:26;14.80;99.90
19493;DHT22;9887;54.366;10.958;2022-07-05T02:15:54;14.90;99.90
19493;DHT22;9887;54.366;10.958;2022-07-05T02:18:22;14.80;99.90
19493;DHT22;9887;54.366;10.958;2022-07-05T02:20:52;14.80;99.90
19493;DHT22;9887;54.366;10.958;2022-07-05T02:23:20;14.80;99.90
19493;DHT22;9887;54.366;10.958;2022-07-05T02:25:49;14.80;99.90
19493;DHT22;9887;54.366;10.958;2022-07-05T02:28:20;14.70;99.90
19493;DHT22;9887;54.366;10.958;2022-07-05T02:30:50;14.70;99.90
19493;DHT22;9887;54.366;10.958;2022-07-05T02:33:19;14.70;99.90
19493;DHT22;9887;54.366;10.958;2022-07-05T02:35:49;14.70;99.90
19493;DHT22;9887;54.366;10.958;2022-07-05T02:38:16;14.70;99.90
19493;DHT22;9887;54.366;10.958;2022-07-05T02:40:44;14.70;99.90
19493;DHT22;9887;54.366;10.958;2022-07-05T02:43:12;14.60;99.90
19493;DHT22;9887;54.366;10.958;2022-07-05T02:45:41;14.60;99.90
19493;DHT22;9887;54.366;10.958;2022-07-05T02:48:10;14.60;99.90
19493;DHT22;9887;54.366;10.958;2022-07-05T02:50:38;14.70;99.90
19493;DHT22;9887;54.366;10.958;2022-07-05T02:53:07;14.60;99.90
19493;DHT22;9887;54.366;10.958;2022-07-05T02:55:36;14.70;99.90
19493;DHT22;9887;54.366;10.958;2022-07-05T02:58:04;14.70;99.90
19493;DHT22;9887;54.366;10.958;2022-07-05T03:00:32;14.70;99.90
19493;DHT22;9887;54.366;10.958;2022-07-05T03:03:03;14.70;99.90
19493;DHT22;9887;54.366;10.958;2022-07-05T03:05:32;14.70;99.90
19493;DHT22;9887;54.366;10.958;2022-07-05T03:08:03;14.70;99.90
19493;DHT22;9887;54.366;10.958;2022-07-05T03:10:33;14.70;99.90
19493;DHT22;9887;54.366;10.958;2022-07-05T03:13:04;14.60;99.90
19493;DHT22;9887;54.366;10.958;2022-07-05T03:15:33;14.70;99.90
19493;DHT22;9887;54.366;10.958;2022-07-05T03:18:03;14.50;99.90
19493;DHT22;9887;54.366;10.958;2022-07-05T03:20:32;14.40;99.90
19493;DHT22;9887;54.366;10.958;2022-07-05T03:23:01;14.30;99.90
19493;DHT22;9887;54.366;10.958;2022-07-05T03:25:37;14.20;99.90
19493;DHT22;9887;54.366;10.958;2022-07-05T03:28:06;14.40;99.90
19493;DHT22;9887;54.366;10.958;2022-07-05T03:30:35;14.10;99.90
19493;DHT22;9887;54.366;10.958;2022-07-05T03:33:04;14.10;99.90
19493;DHT22;9887;54.366;10.958;2022-07-05T03:35:33;14.00;99.90
19493;DHT22;9887;54.366;10.958;2022-07-05T03:38:01;14.00;99.90
19493;DHT22;9887;54.366;10.958;2022-07-05T03:40:29;14.00;99.90
19493;DHT22;9887;54.366;10.958;2022-07-05T03:42:58;14.00;99.90
19493;DHT22;9887;54.366;10.958;2022-07-05T03:45:30;14.10;99.90
19493;DHT22;9887;54.366;10.958;2022-07-05T03:47:58;14.10;99.90
19493;DHT22;9887;54.366;10.958;2022-07-05T03:50:49;14.20;99.90
19493;DHT22;9887;54.366;10.958;2022-07-05T03:53:17;14.20;99.90
19493;DHT22;9887;54.366;10.958;2022-07-05T03:55:45;14.20;99.90
19493;DHT22;9887;54.366;10.958;2022-07-05T03:58:13;14.30;99.90
19493;DHT22;9887;54.366;10.958;2022-07-05T04:00:42;14.30;99.90
19493;DHT22;9887;54.366;10.958;2022-07-05T04:03:14;14.30;99.90
19493;DHT22;9887;54.366;10.958;2022-07-05T04:05:43;14.40;99.90
19493;DHT22;9887;54.366;10.958;2022-07-05T04:08:13;14.40;99.90
19493;DHT22;9887;54.366;10.958;2022-07-05T04:10:44;14.40;99.90
19493;DHT22;9887;54.366;10.958;2022-07-05T04:13:15;14.50;99.90
19493;DHT22;9887;54.366;10.958;2022-07-05T04:15:44;14.50;99.90
19493;DHT22;9887;54.366;10.958;2022-07-05T04:18:12;14.60;99.90
19493;DHT22;9887;54.366;10.958;2022-07-05T04:20:41;14.60;99.90
19493;DHT22;9887;54.366;10.958;2022-07-05T04:23:13;14.70;99.90
19493;DHT22;9887;54.366;10.958;2022-07-05T04:25:43;14.80;99.90
19493;DHT22;9887;54.366;10.958;2022-07-05T04:28:23;14.90;99.90
19493;DHT22;9887;54.366;10.958;2022-07-05T04:30:54;14.90;99.90
19493;DHT22;9887;54.366;10.958;2022-07-05T04:33:23;15.00;99.90
19493;DHT22;9887;54.366;10.958;2022-07-05T04:35:54;15.00;99.90
19493;DHT22;9887;54.366;10.958;2022-07-05T04:38:23;15.00;99.90
19493;DHT22;9887;54.366;10.958;2022-07-05T04:40:53;15.00;99.90
19493;DHT22;9887;54.366;10.958;2022-07-05T04:43:22;15.00;99.90
19493;DHT22;9887;54.366;10.958;2022-07-05T04:45:50;15.10;99.90
19493;DHT22;9887;54.366;10.958;2022-07-05T04:48:23;15.20;99.90
19493;DHT22;9887;54.366;10.958;2022-07-05T04:50:51;15.20;99.90
19493;DHT22;9887;54.366;10.958;2022-07-05T04:53:19;15.30;99.90
19493;DHT22;9887;54.366;10.958;2022-07-05T04:55:48;15.50;99.90
19493;DHT22;9887;54.366;10.958;2022-07-05T04:58:16;15.40;99.90
19493;DHT22;9887;54.366;10.958;2022-07-05T05:00:44;15.40;99.90
19493;DHT22;9887;54.366;10.958;2022-07-05T05:03:12;15.30;99.90
19493;DHT22;9887;54.366;10.958;2022-07-05T05:05:40;15.30;99.90
19493;DHT22;9887;54.366;10.958;2022-07-05T05:08:08;15.40;99.90
19493;DHT22;9887;54.366;10.958;2022-07-05T05:10:36;15.30;99.90
19493;DHT22;9887;54.366;10.958;2022-07-05T05:13:05;15.50;99.90
19493;DHT22;9887;54.366;10.958;2022-07-05T05:15:33;15.60;99.90
19493;DHT22;9887;54.366;10.958;2022-07-05T05:18:01;15.70;99.90
19493;DHT22;9887;54.366;10.958;2022-07-05T05:20:29;15.70;99.90
19493;DHT22;9887;54.366;10.958;2022-07-05T05:22:57;15.90;99.90
19493;DHT22;9887;54.366;10.958;2022-07-05T05:25:25;16.00;99.90
19493;DHT22;9887;54.366;10.958;2022-07-05T05:27:55;16.30;99.90
19493;DHT22;9887;54.366;10.958;2022-07-05T05:30:24;16.40;99.90
19493;DHT22;9887;54.366;10.958;2022-07-05T05:32:52;16.50;99.90
19493;DHT22;9887;54.366;10.958;2022-07-05T05:35:20;16.60;99.90
19493;DHT22;9887;54.366;10.958;2022-07-05T05:37:51;16.60;99.90
19493;DHT22;9887;54.366;10.958;2022-07-05T05:40:20;16.60;99.90
19493;DHT22;9887;54.366;10.958;2022-07-05T05:42:48;16.60;99.90
19493;DHT22;9887;54.366;10.958;2022-07-05T05:45:18;16.70;99.90
19493;DHT22;9887;54.366;10.958;2022-07-05T05:47:50;16.90;99.90
19493;DHT22;9887;54.366;10.958;2022-07-05T05:50:19;17.00;99.90
19493;DHT22;9887;54.366;10.958;2022-07-05T05:52:47;17.20;99.90
19493;DHT22;9887;54.366;10.958;2022-07-05T05:55:15;17.20;99.90
19493;DHT22;9887;54.366;10.958;2022-07-05T05:57:43;17.30;99.90
19493;DHT22;9887;54.366;10.958;2022-07-05T06:00:12;17.40;99.90
19493;DHT22;9887;54.366;10.958;2022-07-05T06:02:42;17.40;99.90
19493;DHT22;9887;54.366;10.958;2022-07-05T06:05:12;17.50;99.90
19493;DHT22;9887;54.366;10.958;2022-07-05T06:07:45;17.60;99.90
19493;DHT22;9887;54.366;10.958;2022-07-05T06:10:15;17.70;99.90
19493;DHT22;9887;54.366;10.958;2022-07-05T06:12:43;17.80;99.90
19493;DHT22;9887;54.366;10.958;2022-07-05T06:15:11;17.90;99.90
19493;DHT22;9887;54.366;10.958;2022-07-05T06:20:09;18.30;99.90
19493;DHT22;9887;54.366;10.958;2022-07-05T06:22:39;18.30;99.90
19493;DHT22;9887;54.366;10.958;2022-07-05T06:30:20;18.50;99.90
19493;DHT22;9887;54.366;10.958;2022-07-05T06:32:49;18.60;99.90
19493;DHT22;9887;54.366;10.958;2022-07-05T06:35:18;18.70;99.90
19493;DHT22;9887;54.366;10.958;2022-07-05T06:42:47;18.80;99.90
19493;DHT22;9887;54.366;10.958;2022-07-05T06:45:16;19.00;99.90
19493;DHT22;9887;54.366;10.958;2022-07-05T06:52:40;19.30;99.90
19493;DHT22;9887;54.366;10.958;2022-07-05T06:55:10;19.30;99.90
19493;DHT22;9887;54.366;10.958;2022-07-05T06:57:37;19.30;99.90
19493;DHT22;9887;54.366;10.958;2022-07-05T07:00:06;19.30;99.90
19493;DHT22;9887;54.366;10.958;2022-07-05T07:02:55;19.40;99.90
19493;DHT22;9887;54.366;10.958;2022-07-05T07:05:23;19.50;99.90
19493;DHT22;9887;54.366;10.958;2022-07-05T07:07:55;19.60;99.90
19493;DHT22;9887;54.366;10.958;2022-07-05T07:10:42;19.70;99.90
19493;DHT22;9887;54.366;10.958;2022-07-05T07:13:13;19.80;99.90
19493;DHT22;9887;54.366;10.958;2022-07-05T07:15:41;19.90;99.90
19493;DHT22;9887;54.366;10.958;2022-07-05T07:18:12;19.90;99.90
19493;DHT22;9887;54.366;10.958;2022-07-05T07:20:39;19.90;99.90
19493;DHT22;9887;54.366;10.958;2022-07-05T07:23:07;20.10;99.90
19493;DHT22;9887;54.366;10.958;2022-07-05T07:25:35;20.10;99.90
19493;DHT22;9887;54.366;10.958;2022-07-05T07:28:05;19.90;99.90
19493;DHT22;9887;54.366;10.958;2022-07-05T07:30:33;19.90;99.90
19493;DHT22;9887;54.366;10.958;2022-07-05T07:33:01;20.00;99.90
19493;DHT22;9887;54.366;10.958;2022-07-05T07:35:31;19.90;99.90
19493;DHT22;9887;54.366;10.958;2022-07-05T07:37:59;19.90;99.90
19493;DHT22;9887;54.366;10.958;2022-07-05T07:40:27;19.80;99.90
19493;DHT22;9887;54.366;10.958;2022-07-05T07:42:55;19.80;99.90
19493;DHT22;9887;54.366;10.958;2022-07-05T07:45:24;20.00;99.90
19493;DHT22;9887;54.366;10.958;2022-07-05T07:47:53;19.80;99.90
19493;DHT22;9887;54.366;10.958;2022-07-05T07:50:21;20.00;99.90
19493;DHT22;9887;54.366;10.958;2022-07-05T07:52:49;20.10;99.90
19493;DHT22;9887;54.366;10.958;2022-07-05T07:55:17;20.20;99.90
19493;DHT22;9887;54.366;10.958;2022-07-05T07:57:45;20.40;99.90
19493;DHT22;9887;54.366;10.958;2022-07-05T08:00:13;20.40;99.90
19493;DHT22;9887;54.366;10.958;2022-07-05T08:02:43;20.50;99.90
19493;DHT22;9887;54.366;10.958;2022-07-05T08:05:11;20.50;99.90
19493;DHT22;9887;54.366;10.958;2022-07-05T08:12:36;21.10;99.90
19493;DHT22;9887;54.366;10.958;2022-07-05T08:15:04;21.20;99.90
19493;DHT22;9887;54.366;10.958;2022-07-05T08:17:34;21.40;99.90
19493;DHT22;9887;54.366;10.958;2022-07-05T08:22:50;21.30;99.90
19493;DHT22;9887;54.366;10.958;2022-07-05T08:25:18;21.70;99.90
19493;DHT22;9887;54.366;10.958;2022-07-05T08:27:46;21.90;99.90
19493;DHT22;9887;54.366;10.958;2022-07-05T08:30:14;21.80;99.90
19493;DHT22;9887;54.366;10.958;2022-07-05T08:32:43;21.70;99.90
19493;DHT22;9887;54.366;10.958;2022-07-05T08:35:12;21.90;99.90
19493;DHT22;9887;54.366;10.958;2022-07-05T08:37:40;21.90;99.90
19493;DHT22;9887;54.366;10.958;2022-07-05T08:40:09;21.60;99.90
19493;DHT22;9887;54.366;10.958;2022-07-05T08:42:38;21.80;99.90
19493;DHT22;9887;54.366;10.958;2022-07-05T08:45:10;22.00;99.90
19493;DHT22;9887;54.366;10.958;2022-07-05T08:47:39;21.90;99.90
19493;DHT22;9887;54.366;10.958;2022-07-05T08:50:08;22.00;99.90
19493;DHT22;9887;54.366;10.958;2022-07-05T08:52:38;22.00;99.90
19493;DHT22;9887;54.366;10.958;2022-07-05T08:55:07;21.90;99.90
19493;DHT22;9887;54.366;10.958;2022-07-05T09:00:04;22.10;99.90
19493;DHT22;9887;54.366;10.958;2022-07-05T09:10:03;22.90;99.90
19493;DHT22;9887;54.366;10.958;2022-07-05T09:12:31;22.70;99.90
19493;DHT22;9887;54.366;10.958;2022-07-05T09:14:59;22.50;99.90
19493;DHT22;9887;54.366;10.958;2022-07-05T09:17:27;22.10;99.90
19493;DHT22;9887;54.366;10.958;2022-07-05T09:20:10;22.10;99.90
19493;DHT22;9887;54.366;10.958;2022-07-05T09:22:47;22.20;99.90
19493;DHT22;9887;54.366;10.958;2022-07-05T09:25:19;22.50;99.90
19493;DHT22;9887;54.366;10.958;2022-07-05T09:30:27;21.10;99.90
19493;DHT22;9887;54.366;10.958;2022-07-05T09:33:07;21.10;99.90
19493;DHT22;9887;54.366;10.958;2022-07-05T09:35:36;20.60;99.90
19493;DHT22;9887;54.366;10.958;2022-07-05T09:38:04;20.60;99.90
19493;DHT22;9887;54.366;10.958;2022-07-05T09:43:14;20.10;99.90
19493;DHT22;9887;54.366;10.958;2022-07-05T09:45:57;20.10;99.90
19493;DHT22;9887;54.366;10.958;2022-07-05T09:48:25;20.30;99.90
19493;DHT22;9887;54.366;10.958;2022-07-05T09:51:06;20.40;99.90
19493;DHT22;9887;54.366;10.958;2022-07-05T09:53:56;20.40;99.90
19493;DHT22;9887;54.366;10.958;2022-07-05T09:56:43;20.60;99.90
19493;DHT22;9887;54.366;10.958;2022-07-05T09:59:16;20.70;99.90
19493;DHT22;9887;54.366;10.958;2022-07-05T10:01:45;20.50;99.90
19493;DHT22;9887;54.366;10.958;2022-07-05T10:04:14;20.60;99.90
19493;DHT22;9887;54.366;10.958;2022-07-05T10:06:42;20.50;99.90
19493;DHT22;9887;54.366;10.958;2022-07-05T10:11:43;20.20;99.90
19493;DHT22;9887;54.366;10.958;2022-07-05T10:16:46;19.90;99.90
19493;DHT22;9887;54.366;10.958;2022-07-05T10:19:18;19.90;99.90
19493;DHT22;9887;54.366;10.958;2022-07-05T10:21:47;20.20;99.90
19493;DHT22;9887;54.366;10.958;2022-07-05T10:24:36;20.30;99.90
19493;DHT22;9887;54.366;10.958;2022-07-05T10:27:07;20.10;99.90
19493;DHT22;9887;54.366;10.958;2022-07-05T10:29:36;20.40;99.90
19493;DHT22;9887;54.366;10.958;2022-07-05T10:32:07;20.40;99.90
19493;DHT22;9887;54.366;10.958;2022-07-05T10:34:35;20.60;99.90
19493;DHT22;9887;54.366;10.958;2022-07-05T10:37:23;20.60;99.90
19493;DHT22;9887;54.366;10.958;2022-07-05T10:39:52;20.80;99.90
19493;DHT22;9887;54.366;10.958;2022-07-05T10:42:22;21.00;99.90
19493;DHT22;9887;54.366;10.958;2022-07-05T10:50:00;21.90;99.90
19493;DHT22;9887;54.366;10.958;2022-07-05T10:52:28;22.00;99.90
19493;DHT22;9887;54.366;10.958;2022-07-05T10:55:21;22.10;99.90
19493;DHT22;9887;54.366;10.958;2022-07-05T10:58:23;22.30;99.90
19493;DHT22;9887;54.366;10.958;2022-07-05T11:04:27;22.60;99.90
19493;DHT22;9887;54.366;10.958;2022-07-05T11:06:57;22.90;99.90
19493;DHT22;9887;54.366;10.958;2022-07-05T11:09:25;23.10;99.90
19493;DHT22;9887;54.366;10.958;2022-07-05T11:12:07;23.20;99.90
19493;DHT22;9887;54.366;10.958;2022-07-05T11:15:04;22.70;99.90
19493;DHT22;9887;54.366;10.958;2022-07-05T11:17:34;22.60;99.90
19493;DHT22;9887;54.366;10.958;2022-07-05T11:20:28;22.30;99.90
19493;DHT22;9887;54.366;10.958;2022-07-05T11:23:07;21.90;99.90
19493;DHT22;9887;54.366;10.958;2022-07-05T11:25:38;22.00;99.90
19493;DHT22;9887;54.366;10.958;2022-07-05T11:28:18;22.20;99.90
19493;DHT22;9887;54.366;10.958;2022-07-05T11:30:52;22.30;99.90
19493;DHT22;9887;54.366;10.958;2022-07-05T11:33:32;22.50;99.90
19493;DHT22;9887;54.366;10.958;2022-07-05T11:36:01;22.40;99.90
19493;DHT22;9887;54.366;10.958;2022-07-05T11:38:30;22.50;99.90
19493;DHT22;9887;54.366;10.958;2022-07-05T11:41:18;22.50;99.90
19493;DHT22;9887;54.366;10.958;2022-07-05T11:43:55;22.50;99.90
19493;DHT22;9887;54.366;10.958;2022-07-05T11:46:26;22.30;99.90
19493;DHT22;9887;54.366;10.958;2022-07-05T11:49:19;21.90;99.90
19493;DHT22;9887;54.366;10.958;2022-07-05T11:51:53;21.40;99.90
19493;DHT22;9887;54.366;10.958;2022-07-05T11:54:23;21.10;99.90
19493;DHT22;9887;54.366;10.958;2022-07-05T11:56:51;21.00;99.90
19493;DHT22;9887;54.366;10.958;2022-07-05T11:59:20;21.10;99.90
19493;DHT22;9887;54.366;10.958;2022-07-05T12:01:50;21.30;99.90
19493;DHT22;9887;54.366;10.958;2022-07-05T12:04:23;21.40;99.90
19493;DHT22;9887;54.366;10.958;2022-07-05T12:06:52;21.70;99.90
19493;DHT22;9887;54.366;10.958;2022-07-05T12:09:22;21.70;99.90
19493;DHT22;9887;54.366;10.958;2022-07-05T12:11:51;21.90;99.90
19493;DHT22;9887;54.366;10.958;2022-07-05T12:14:51;21.60;99.90
19493;DHT22;9887;54.366;10.958;2022-07-05T12:17:21;21.50;99.90
19493;DHT22;9887;54.366;10.958;2022-07-05T12:19:52;21.60;99.90
19493;DHT22;9887;54.366;10.958;2022-07-05T12:22:29;21.70;99.90
19493;DHT22;9887;54.366;10.958;2022-07-05T12:24:57;21.80;99.90
19493;DHT22;9887;54.366;10.958;2022-07-05T12:27:26;22.10;99.90
19493;DHT22;9887;54.366;10.958;2022-07-05T12:29:54;22.50;99.90
19493;DHT22;9887;54.366;10.958;2022-07-05T12:32:24;22.60;99.90
19493;DHT22;9887;54.366;10.958;2022-07-05T12:34:52;22.60;99.90
19493;DHT22;9887;54.366;10.958;2022-07-05T12:37:20;22.60;99.90
19493;DHT22;9887;54.366;10.958;2022-07-05T12:39:49;22.70;99.90
19493;DHT22;9887;54.366;10.958;2022-07-05T12:42:30;22.50;99.90
19493;DHT22;9887;54.366;10.958;2022-07-05T12:45:10;22.40;99.90
19493;DHT22;9887;54.366;10.958;2022-07-05T12:47:50;22.30;99.90
19493;DHT22;9887;54.366;10.958;2022-07-05T12:50:20;22.20;99.90
19493;DHT22;9887;54.366;10.958;2022-07-05T12:52:57;22.00;99.90
19493;DHT22;9887;54.366;10.958;2022-07-05T12:55:33;21.90;99.90
19493;DHT22;9887;54.366;10.958;2022-07-05T12:58:19;21.80;99.90
19493;DHT22;9887;54.366;10.958;2022-07-05T13:00:47;21.70;99.90
19493;DHT22;9887;54.366;10.958;2022-07-05T13:03:16;21.50;99.90
19493;DHT22;9887;54.366;10.958;2022-07-05T13:06:00;21.40;99.90
19493;DHT22;9887;54.366;10.958;2022-07-05T13:08:28;21.50;99.90
19493;DHT22;9887;54.366;10.958;2022-07-05T13:10:56;21.50;99.90
19493;DHT22;9887;54.366;10.958;2022-07-05T13:13:25;21.70;99.90
19493;DHT22;9887;54.366;10.958;2022-07-05T13:15:53;21.80;99.90
19493;DHT22;9887;54.366;10.958;2022-07-05T13:18:26;21.90;99.90
19493;DHT22;9887;54.366;10.958;2022-07-05T13:20:54;21.90;99.90
19493;DHT22;9887;54.366;10.958;2022-07-05T13:23:22;21.80;99.90
19493;DHT22;9887;54.366;10.958;2022-07-05T13:25:51;21.90;99.90
19493;DHT22;9887;54.366;10.958;2022-07-05T13:30:47;22.20;99.90
19493;DHT22;9887;54.366;10.958;2022-07-05T13:33:15;22.40;99.90
19493;DHT22;9887;54.366;10.958;2022-07-05T13:35:44;22.50;99.90
19493;DHT22;9887;54.366;10.958;2022-07-05T13:38:12;22.60;99.90
19493;DHT22;9887;54.366;10.958;2022-07-05T13:40:40;22.60;99.90
19493;DHT22;9887;54.366;10.958;2022-07-05T13:43:08;22.80;99.90
19493;DHT22;9887;54.366;10.958;2022-07-05T13:45:36;22.90;99.90
19493;DHT22;9887;54.366;10.958;2022-07-05T13:48:04;22.90;99.90
19493;DHT22;9887;54.366;10.958;2022-07-05T13:50:32;23.00;99.90
19493;DHT22;9887;54.366;10.958;2022-07-05T13:53:03;23.00;99.90
19493;DHT22;9887;54.366;10.958;2022-07-05T13:55:31;23.20;99.90
19493;DHT22;9887;54.366;10.958;2022-07-05T13:57:59;23.30;99.90
19493;DHT22;9887;54.366;10.958;2022-07-05T14:02:55;23.60;99.90
19493;DHT22;9887;54.366;10.958;2022-07-05T14:05:31;23.70;99.90
19493;DHT22;9887;54.366;10.958;2022-07-05T14:07:59;23.90;99.90
19493;DHT22;9887;54.366;10.958;2022-07-05T14:10:28;24.00;99.90
19493;DHT22;9887;54.366;10.958;2022-07-05T14:12:56;24.00;99.90
19493;DHT22;9887;54.366;10.958;2022-07-05T14:15:24;24.10;99.90
19493;DHT22;9887;54.366;10.958;2022-07-05T14:17:52;24.00;99.90
19493;DHT22;9887;54.366;10.958;2022-07-05T14:20:20;24.00;99.90
19493;DHT22;9887;54.366;10.958;2022-07-05T14:22:48;24.00;99.90
19493;DHT22;9887;54.366;10.958;2022-07-05T14:25:16;24.00;99.90
19493;DHT22;9887;54.366;10.958;2022-07-05T14:27:45;23.90;99.90
19493;DHT22;9887;54.366;10.958;2022-07-05T14:30:13;23.90;99.90
19493;DHT22;9887;54.366;10.958;2022-07-05T14:32:41;23.90;99.90
19493;DHT22;9887;54.366;10.958;2022-07-05T14:35:14;23.90;99.90
19493;DHT22;9887;54.366;10.958;2022-07-05T14:37:42;23.90;99.90
19493;DHT22;9887;54.366;10.958;2022-07-05T14:40:10;23.90;99.90
19493;DHT22;9887;54.366;10.958;2022-07-05T14:42:39;24.00;99.90
19493;DHT22;9887;54.366;10.958;2022-07-05T14:45:09;24.10;99.90
19493;DHT22;9887;54.366;10.958;2022-07-05T14:47:37;23.90;99.90
19493;DHT22;9887;54.366;10.958;2022-07-05T14:50:05;23.90;99.90
19493;DHT22;9887;54.366;10.958;2022-07-05T14:52:33;24.00;99.90
19493;DHT22;9887;54.366;10.958;2022-07-05T14:55:01;24.00;99.90
19493;DHT22;9887;54.366;10.958;2022-07-05T14:57:29;24.10;99.90
19493;DHT22;9887;54.366;10.958;2022-07-05T14:59:57;24.10;99.90
19493;DHT22;9887;54.366;10.958;2022-07-05T15:02:26;24.10;99.90
19493;DHT22;9887;54.366;10.958;2022-07-05T15:04:54;24.10;99.90
19493;DHT22;9887;54.366;10.958;2022-07-05T15:07:22;23.60;99.90
19493;DHT22;9887;54.366;10.958;2022-07-05T15:09:50;23.30;99.90
19493;DHT22;9887;54.366;10.958;2022-07-05T15:12:18;22.90;99.90
19493;DHT22;9887;54.366;10.958;2022-07-05T15:14:46;22.70;99.90
19493;DHT22;9887;54.366;10.958;2022-07-05T15:17:14;22.80;99.90
19493;DHT22;9887;54.366;10.958;2022-07-05T15:19:43;22.60;99.90
19493;DHT22;9887;54.366;10.958;2022-07-05T15:22:11;22.40;99.90
19493;DHT22;9887;54.366;10.958;2022-07-05T15:27:07;22.10;99.90
19493;DHT22;9887;54.366;10.958;2022-07-05T15:29:44;21.80;99.90
19493;DHT22;9887;54.366;10.958;2022-07-05T15:32:12;21.70;99.90
19493;DHT22;9887;54.366;10.958;2022-07-05T15:37:10;21.30;99.90
19493;DHT22;9887;54.366;10.958;2022-07-05T15:39:38;21.50;99.90
19493;DHT22;9887;54.366;10.958;2022-07-05T15:42:06;21.40;99.90
19493;DHT22;9887;54.366;10.958;2022-07-05T15:44:34;21.40;99.90
19493;DHT22;9887;54.366;10.958;2022-07-05T15:47:02;21.50;99.90
19493;DHT22;9887;54.366;10.958;2022-07-05T15:49:31;21.40;99.90
19493;DHT22;9887;54.366;10.958;2022-07-05T15:51:59;21.50;99.90
19493;DHT22;9887;54.366;10.958;2022-07-05T15:54:28;20.90;99.90
19493;DHT22;9887;54.366;10.958;2022-07-05T15:56:56;20.90;99.90
19493;DHT22;9887;54.366;10.958;2022-07-05T15:59:26;20.90;99.90
19493;DHT22;9887;54.366;10.958;2022-07-05T16:01:54;20.90;99.90
19493;DHT22;9887;54.366;10.958;2022-07-05T16:04:22;20.90;99.90
19493;DHT22;9887;54.366;10.958;2022-07-05T16:06:56;20.90;99.90
19493;DHT22;9887;54.366;10.958;2022-07-05T16:09:25;20.80;99.90
19493;DHT22;9887;54.366;10.958;2022-07-05T16:11:54;20.60;99.90
19493;DHT22;9887;54.366;10.958;2022-07-05T16:14:22;20.50;99.90
19493;DHT22;9887;54.366;10.958;2022-07-05T16:16:50;20.60;99.90
19493;DHT22;9887;54.366;10.958;2022-07-05T16:19:18;20.60;99.90
19493;DHT22;9887;54.366;10.958;2022-07-05T16:21:46;20.50;99.90
19493;DHT22;9887;54.366;10.958;2022-07-05T16:24:16;20.40;99.90
19493;DHT22;9887;54.366;10.958;2022-07-05T16:26:44;20.40;99.90
19493;DHT22;9887;54.366;10.958;2022-07-05T16:29:13;20.40;99.90
19493;DHT22;9887;54.366;10.958;2022-07-05T16:31:41;20.40;99.90
19493;DHT22;9887;54.366;10.958;2022-07-05T16:34:09;20.50;99.90
19493;DHT22;9887;54.366;10.958;2022-07-05T16:36:38;20.40;99.90
19493;DHT22;9887;54.366;10.958;2022-07-05T16:39:06;20.30;99.90
19493;DHT22;9887;54.366;10.958;2022-07-05T16:44:06;20.20;99.90
19493;DHT22;9887;54.366;10.958;2022-07-05T16:46:35;20.30;99.90
19493;DHT22;9887;54.366;10.958;2022-07-05T16:49:03;20.50;99.90
19493;DHT22;9887;54.366;10.958;2022-07-05T16:51:31;20.60;99.90
19493;DHT22;9887;54.366;10.958;2022-07-05T16:53:59;20.80;99.90
19493;DHT22;9887;54.366;10.958;2022-07-05T16:56:27;20.80;99.90